sensor_id;sensor_type;location;lat;lon;timestamp;temperature;humidity
3281;DHT22;1652;51.318;6.202;2023-03-23T00:01:13;12.80;99.90
3281;DHT22;1652;51.318;6.202;2023-03-23T00:03:41;12.70;99.90
3281;DHT22;1652;51.318;6.202;2023-03-23T00:06:09;12.70;99.90
3281;DHT22;1652;51.318;6.202;2023-03-23T00:08:37;12.70;99.90
3281;DHT22;1652;51.318;6.202;2023-03-23T00:11:12;12.70;99.90
3281;DHT22;1652;51.318;6.202;2023-03-23T00:13:42;12.70;99.90
3281;DHT22;1652;51.318;6.202;2023-03-23T00:16:10;12.70;99.90
3281;DHT22;1652;51.318;6.202;2023-03-23T00:21:11;12.70;99.90
3281;DHT22;1652;51.318;6.202;2023-03-23T00:23:39;12.80;99.90
3281;DHT22;1652;51.318;6.202;2023-03-23T00:26:06;12.80;99.90
3281;DHT22;1652;51.318;6.202;2023-03-23T00:28:33;12.70;99.90
3281;DHT22;1652;51.318;6.202;2023-03-23T00:31:03;12.70;99.90
3281;DHT22;1652;51.318;6.202;2023-03-23T00:33:32;12.70;99.90
3281;DHT22;1652;51.318;6.202;2023-03-23T00:36:05;12.70;99.90
3281;DHT22;1652;51.318;6.202;2023-03-23T00:38:32;12.70;99.90
3281;DHT22;1652;51.318;6.202;2023-03-23T00:40:59;12.70;99.90
3281;DHT22;1652;51.318;6.202;2023-03-23T00:43:30;12.70;99.90
3281;DHT22;1652;51.318;6.202;2023-03-23T00:45:57;12.70;99.90
3281;DHT22;1652;51.318;6.202;2023-03-23T00:48:28;12.70;99.90
3281;DHT22;1652;51.318;6.202;2023-03-23T00:50:56;12.70;99.90
3281;DHT22;1652;51.318;6.202;2023-03-23T00:53:22;12.70;99.90
3281;DHT22;1652;51.318;6.202;2023-03-23T00:55:49;12.70;99.90
3281;DHT22;1652;51.318;6.202;2023-03-23T00:58:17;12.70;99.90
3281;DHT22;1652;51.318;6.202;2023-03-23T01:00:43;12.60;99.90
3281;DHT22;1652;51.318;6.202;2023-03-23T01:03:10;12.60;99.90
3281;DHT22;1652;51.318;6.202;2023-03-23T01:05:45;12.60;99.90
3281;DHT22;1652;51.318;6.202;2023-03-23T01:08:18;12.60;99.90
3281;DHT22;1652;51.318;6.202;2023-03-23T01:10:46;12.70;99.90
3281;DHT22;1652;51.318;6.202;2023-03-23T01:13:13;12.70;99.90
3281;DHT22;1652;51.318;6.202;2023-03-23T01:15:41;12.70;99.90
3281;DHT22;1652;51.318;6.202;2023-03-23T01:18:09;12.60;99.90
3281;DHT22;1652;51.318;6.202;2023-03-23T01:20:37;12.70;99.90
3281;DHT22;1652;51.318;6.202;2023-03-23T01:23:04;12.70;99.90
3281;DHT22;1652;51.318;6.202;2023-03-23T01:25:32;12.70;99.90
3281;DHT22;1652;51.318;6.202;2023-03-23T01:28:02;12.70;99.90
3281;DHT22;1652;51.318;6.202;2023-03-23T01:30:28;12.70;99.90
3281;DHT22;1652;51.318;6.202;2023-03-23T01:32:55;12.70;99.90
3281;DHT22;1652;51.318;6.202;2023-03-23T01:35:22;12.70;99.90
3281;DHT22;1652;51.318;6.202;2023-03-23T01:37:49;12.70;99.90
3281;DHT22;1652;51.318;6.202;2023-03-23T01:40:16;12.70;99.90
3281;DHT22;1652;51.318;6.202;2023-03-23T01:42:43;12.70;99.90
3281;DHT22;1652;51.318;6.202;2023-03-23T01:47:49;12.70;99.90
3281;DHT22;1652;51.318;6.202;2023-03-23T01:50:21;12.70;99.90
3281;DHT22;1652;51.318;6.202;2023-03-23T01:52:52;12.70;99.90
3281;DHT22;1652;51.318;6.202;2023-03-23T01:55:21;12.70;99.90
3281;DHT22;1652;51.318;6.202;2023-03-23T01:57:49;12.80;99.90
3281;DHT22;1652;51.318;6.202;2023-03-23T02:00:16;12.80;99.90
3281;DHT22;1652;51.318;6.202;2023-03-23T02:02:44;12.70;99.90
3281;DHT22;1652;51.318;6.202;2023-03-23T02:05:24;12.70;99.90
3281;DHT22;1652;51.318;6.202;2023-03-23T02:07:52;12.70;99.90
3281;DHT22;1652;51.318;6.202;2023-03-23T02:10:19;12.70;99.90
3281;DHT22;1652;51.318;6.202;2023-03-23T02:12:46;12.60;99.90
3281;DHT22;1652;51.318;6.202;2023-03-23T02:15:13;12.60;99.90
3281;DHT22;1652;51.318;6.202;2023-03-23T02:17:52;12.60;99.90
3281;DHT22;1652;51.318;6.202;2023-03-23T02:21:13;12.60;99.90
3281;DHT22;1652;51.318;6.202;2023-03-23T02:23:52;12.60;99.90
3281;DHT22;1652;51.318;6.202;2023-03-23T02:29:42;12.50;99.90
3281;DHT22;1652;51.318;6.202;2023-03-23T02:35:08;12.50;99.90
3281;DHT22;1652;51.318;6.202;2023-03-23T02:37:47;12.50;99.90
3281;DHT22;1652;51.318;6.202;2023-03-23T02:40:22;12.50;99.90
3281;DHT22;1652;51.318;6.202;2023-03-23T02:42:54;12.50;99.90
3281;DHT22;1652;51.318;6.202;2023-03-23T02:45:23;12.50;99.90
3281;DHT22;1652;51.318;6.202;2023-03-23T02:47:53;12.50;99.90
3281;DHT22;1652;51.318;6.202;2023-03-23T02:50:23;12.50;99.90
3281;DHT22;1652;51.318;6.202;2023-03-23T02:52:53;12.40;99.90
3281;DHT22;1652;51.318;6.202;2023-03-23T02:55:22;12.50;99.90
3281;DHT22;1652;51.318;6.202;2023-03-23T02:57:53;12.50;99.90
3281;DHT22;1652;51.318;6.202;2023-03-23T03:00:21;12.50;99.90
3281;DHT22;1652;51.318;6.202;2023-03-23T03:02:53;12.50;99.90
3281;DHT22;1652;51.318;6.202;2023-03-23T03:08:35;12.50;99.90
3281;DHT22;1652;51.318;6.202;2023-03-23T03:11:07;12.50;99.90
3281;DHT22;1652;51.318;6.202;2023-03-23T03:13:48;12.50;99.90
3281;DHT22;1652;51.318;6.202;2023-03-23T03:21:41;12.40;99.90
3281;DHT22;1652;51.318;6.202;2023-03-23T03:24:11;12.50;99.90
3281;DHT22;1652;51.318;6.202;2023-03-23T03:26:45;12.50;99.90
3281;DHT22;1652;51.318;6.202;2023-03-23T03:29:20;12.50;99.90
3281;DHT22;1652;51.318;6.202;2023-03-23T03:31:49;12.60;99.90
3281;DHT22;1652;51.318;6.202;2023-03-23T03:34:17;12.50;99.90
3281;DHT22;1652;51.318;6.202;2023-03-23T03:36:45;12.50;99.90
3281;DHT22;1652;51.318;6.202;2023-03-23T03:39:14;12.50;99.90
3281;DHT22;1652;51.318;6.202;2023-03-23T03:41:42;12.50;99.90
3281;DHT22;1652;51.318;6.202;2023-03-23T03:44:10;12.50;99.90
3281;DHT22;1652;51.318;6.202;2023-03-23T03:46:38;12.50;99.90
3281;DHT22;1652;51.318;6.202;2023-03-23T03:49:07;12.50;99.90
3281;DHT22;1652;51.318;6.202;2023-03-23T03:51:35;12.60;99.90
3281;DHT22;1652;51.318;6.202;2023-03-23T03:54:03;12.60;99.90
3281;DHT22;1652;51.318;6.202;2023-03-23T03:56:29;12.60;99.90
3281;DHT22;1652;51.318;6.202;2023-03-23T03:58:58;12.60;99.90
3281;DHT22;1652;51.318;6.202;2023-03-23T04:01:46;12.60;99.90
3281;DHT22;1652;51.318;6.202;2023-03-23T04:04:13;12.60;99.90
3281;DHT22;1652;51.318;6.202;2023-03-23T04:06:40;12.60;99.90
3281;DHT22;1652;51.318;6.202;2023-03-23T04:09:07;12.60;99.90
3281;DHT22;1652;51.318;6.202;2023-03-23T04:11:34;12.60;99.90
3281;DHT22;1652;51.318;6.202;2023-03-23T04:14:01;12.60;99.90
3281;DHT22;1652;51.318;6.202;2023-03-23T04:16:29;12.60;99.90
3281;DHT22;1652;51.318;6.202;2023-03-23T04:18:56;12.60;99.90
3281;DHT22;1652;51.318;6.202;2023-03-23T04:21:23;12.60;99.90
3281;DHT22;1652;51.318;6.202;2023-03-23T04:23:50;12.60;99.90
3281;DHT22;1652;51.318;6.202;2023-03-23T04:26:17;12.60;99.90
3281;DHT22;1652;51.318;6.202;2023-03-23T04:28:46;12.60;99.90
3281;DHT22;1652;51.318;6.202;2023-03-23T04:31:13;12.60;99.90
3281;DHT22;1652;51.318;6.202;2023-03-23T04:33:41;12.60;99.90
3281;DHT22;1652;51.318;6.202;2023-03-23T04:36:25;12.60;99.90
3281;DHT22;1652;51.318;6.202;2023-03-23T04:39:12;12.60;99.90
3281;DHT22;1652;51.318;6.202;2023-03-23T04:41:40;12.60;99.90
3281;DHT22;1652;51.318;6.202;2023-03-23T04:44:07;12.60;99.90
3281;DHT22;1652;51.318;6.202;2023-03-23T04:46:34;12.70;99.90
3281;DHT22;1652;51.318;6.202;2023-03-23T04:49:01;12.70;99.90
3281;DHT22;1652;51.318;6.202;2023-03-23T04:51:29;12.60;99.90
3281;DHT22;1652;51.318;6.202;2023-03-23T04:53:59;12.70;99.90
3281;DHT22;1652;51.318;6.202;2023-03-23T04:56:26;12.60;99.90
3281;DHT22;1652;51.318;6.202;2023-03-23T04:58:53;12.70;99.90
3281;DHT22;1652;51.318;6.202;2023-03-23T05:01:20;12.70;99.90
3281;DHT22;1652;51.318;6.202;2023-03-23T05:03:47;12.70;99.90
3281;DHT22;1652;51.318;6.202;2023-03-23T05:06:15;12.60;99.90
3281;DHT22;1652;51.318;6.202;2023-03-23T05:08:41;12.60;99.90
3281;DHT22;1652;51.318;6.202;2023-03-23T05:11:08;12.60;99.90
3281;DHT22;1652;51.318;6.202;2023-03-23T05:13:36;12.60;99.90
3281;DHT22;1652;51.318;6.202;2023-03-23T05:16:04;12.60;99.90
3281;DHT22;1652;51.318;6.202;2023-03-23T05:18:31;12.70;99.90
3281;DHT22;1652;51.318;6.202;2023-03-23T05:21:00;12.70;99.90
3281;DHT22;1652;51.318;6.202;2023-03-23T05:23:27;12.60;99.90
3281;DHT22;1652;51.318;6.202;2023-03-23T05:25:58;12.70;99.90
3281;DHT22;1652;51.318;6.202;2023-03-23T05:28:29;12.70;99.90
3281;DHT22;1652;51.318;6.202;2023-03-23T05:30:57;12.70;99.90
3281;DHT22;1652;51.318;6.202;2023-03-23T05:33:23;12.70;99.90
3281;DHT22;1652;51.318;6.202;2023-03-23T05:35:50;12.70;99.90
3281;DHT22;1652;51.318;6.202;2023-03-23T05:38:17;12.70;99.90
3281;DHT22;1652;51.318;6.202;2023-03-23T05:40:44;12.70;99.90
3281;DHT22;1652;51.318;6.202;2023-03-23T05:43:11;12.60;99.90
3281;DHT22;1652;51.318;6.202;2023-03-23T05:45:38;12.70;99.90
3281;DHT22;1652;51.318;6.202;2023-03-23T05:48:06;12.70;99.90
3281;DHT22;1652;51.318;6.202;2023-03-23T05:50:33;12.70;99.90
3281;DHT22;1652;51.318;6.202;2023-03-23T05:52:59;12.70;99.90
3281;DHT22;1652;51.318;6.202;2023-03-23T05:55:27;12.70;99.90
3281;DHT22;1652;51.318;6.202;2023-03-23T05:57:53;12.70;99.90
3281;DHT22;1652;51.318;6.202;2023-03-23T06:00:21;12.70;99.90
3281;DHT22;1652;51.318;6.202;2023-03-23T06:02:50;12.70;99.90
3281;DHT22;1652;51.318;6.202;2023-03-23T06:05:21;12.70;99.90
3281;DHT22;1652;51.318;6.202;2023-03-23T06:07:48;12.70;99.90
3281;DHT22;1652;51.318;6.202;2023-03-23T06:10:16;12.70;99.90
3281;DHT22;1652;51.318;6.202;2023-03-23T06:12:43;12.70;99.90
3281;DHT22;1652;51.318;6.202;2023-03-23T06:15:10;12.80;99.90
3281;DHT22;1652;51.318;6.202;2023-03-23T06:17:37;12.80;99.90
3281;DHT22;1652;51.318;6.202;2023-03-23T06:20:11;12.80;99.90
3281;DHT22;1652;51.318;6.202;2023-03-23T06:22:39;12.90;99.90
3281;DHT22;1652;51.318;6.202;2023-03-23T06:25:07;12.90;99.90
3281;DHT22;1652;51.318;6.202;2023-03-23T06:27:35;12.90;99.90
3281;DHT22;1652;51.318;6.202;2023-03-23T06:30:03;12.90;99.90
3281;DHT22;1652;51.318;6.202;2023-03-23T06:32:31;12.90;99.90
3281;DHT22;1652;51.318;6.202;2023-03-23T06:34:58;12.90;99.90
3281;DHT22;1652;51.318;6.202;2023-03-23T06:37:25;13.00;99.90
3281;DHT22;1652;51.318;6.202;2023-03-23T06:39:52;13.10;99.90
3281;DHT22;1652;51.318;6.202;2023-03-23T06:42:22;13.10;99.90
3281;DHT22;1652;51.318;6.202;2023-03-23T06:44:51;13.10;99.90
3281;DHT22;1652;51.318;6.202;2023-03-23T06:47:18;13.20;99.90
3281;DHT22;1652;51.318;6.202;2023-03-23T06:49:45;13.30;99.90
3281;DHT22;1652;51.318;6.202;2023-03-23T06:52:12;13.20;99.90
3281;DHT22;1652;51.318;6.202;2023-03-23T06:54:39;13.20;99.90
3281;DHT22;1652;51.318;6.202;2023-03-23T06:57:07;13.10;99.90
3281;DHT22;1652;51.318;6.202;2023-03-23T06:59:34;13.10;99.90
3281;DHT22;1652;51.318;6.202;2023-03-23T07:02:01;13.10;99.90
3281;DHT22;1652;51.318;6.202;2023-03-23T07:04:28;13.10;99.90
3281;DHT22;1652;51.318;6.202;2023-03-23T07:06:55;13.10;99.90
3281;DHT22;1652;51.318;6.202;2023-03-23T07:09:23;13.20;99.90
3281;DHT22;1652;51.318;6.202;2023-03-23T07:12:08;13.20;99.90
3281;DHT22;1652;51.318;6.202;2023-03-23T07:14:36;13.30;99.90
3281;DHT22;1652;51.318;6.202;2023-03-23T07:17:03;13.30;99.90
3281;DHT22;1652;51.318;6.202;2023-03-23T07:19:30;13.30;99.90
3281;DHT22;1652;51.318;6.202;2023-03-23T07:21:57;13.30;99.90
3281;DHT22;1652;51.318;6.202;2023-03-23T07:24:24;13.30;99.90
3281;DHT22;1652;51.318;6.202;2023-03-23T07:26:51;13.40;99.90
3281;DHT22;1652;51.318;6.202;2023-03-23T07:29:18;13.40;99.90
3281;DHT22;1652;51.318;6.202;2023-03-23T07:31:45;13.30;99.90
3281;DHT22;1652;51.318;6.202;2023-03-23T07:34:12;13.30;99.90
3281;DHT22;1652;51.318;6.202;2023-03-23T07:36:40;13.30;99.90
3281;DHT22;1652;51.318;6.202;2023-03-23T07:39:07;13.30;99.90
3281;DHT22;1652;51.318;6.202;2023-03-23T07:41:34;13.40;99.90
3281;DHT22;1652;51.318;6.202;2023-03-23T07:44:01;13.40;99.90
3281;DHT22;1652;51.318;6.202;2023-03-23T07:46:28;13.40;99.90
3281;DHT22;1652;51.318;6.202;2023-03-23T07:48:55;13.40;99.90
3281;DHT22;1652;51.318;6.202;2023-03-23T07:51:23;13.40;99.90
3281;DHT22;1652;51.318;6.202;2023-03-23T07:53:51;13.40;99.90
3281;DHT22;1652;51.318;6.202;2023-03-23T07:56:18;13.50;99.90
3281;DHT22;1652;51.318;6.202;2023-03-23T07:58:46;13.50;99.90
3281;DHT22;1652;51.318;6.202;2023-03-23T08:01:13;13.60;99.90
3281;DHT22;1652;51.318;6.202;2023-03-23T08:03:41;13.60;99.90
3281;DHT22;1652;51.318;6.202;2023-03-23T08:06:08;13.70;99.90
3281;DHT22;1652;51.318;6.202;2023-03-23T08:08:36;13.70;99.90
3281;DHT22;1652;51.318;6.202;2023-03-23T08:11:03;13.70;99.90
3281;DHT22;1652;51.318;6.202;2023-03-23T08:13:32;13.70;99.90
3281;DHT22;1652;51.318;6.202;2023-03-23T08:16:02;13.80;99.90
3281;DHT22;1652;51.318;6.202;2023-03-23T08:18:31;13.80;99.90
3281;DHT22;1652;51.318;6.202;2023-03-23T08:20:58;13.90;99.90
3281;DHT22;1652;51.318;6.202;2023-03-23T08:23:25;14.10;99.90
3281;DHT22;1652;51.318;6.202;2023-03-23T08:25:52;14.20;99.90
3281;DHT22;1652;51.318;6.202;2023-03-23T08:28:20;14.10;99.90
3281;DHT22;1652;51.318;6.202;2023-03-23T08:30:46;14.10;99.90
3281;DHT22;1652;51.318;6.202;2023-03-23T08:33:15;14.10;99.90
3281;DHT22;1652;51.318;6.202;2023-03-23T08:35:42;14.10;99.90
3281;DHT22;1652;51.318;6.202;2023-03-23T08:38:11;14.10;99.90
3281;DHT22;1652;51.318;6.202;2023-03-23T08:40:38;13.90;99.90
3281;DHT22;1652;51.318;6.202;2023-03-23T08:43:06;13.80;99.90
3281;DHT22;1652;51.318;6.202;2023-03-23T08:45:32;13.70;99.90
3281;DHT22;1652;51.318;6.202;2023-03-23T08:47:59;13.70;99.90
3281;DHT22;1652;51.318;6.202;2023-03-23T08:50:27;13.70;99.90
3281;DHT22;1652;51.318;6.202;2023-03-23T08:52:54;13.60;99.90
3281;DHT22;1652;51.318;6.202;2023-03-23T08:55:22;13.50;99.90
3281;DHT22;1652;51.318;6.202;2023-03-23T08:57:49;13.30;99.90
3281;DHT22;1652;51.318;6.202;2023-03-23T09:00:18;13.20;99.90
3281;DHT22;1652;51.318;6.202;2023-03-23T09:02:47;12.70;99.90
3281;DHT22;1652;51.318;6.202;2023-03-23T09:05:16;12.20;99.90
3281;DHT22;1652;51.318;6.202;2023-03-23T09:07:49;11.90;99.90
3281;DHT22;1652;51.318;6.202;2023-03-23T09:10:17;11.70;99.90
3281;DHT22;1652;51.318;6.202;2023-03-23T09:12:45;11.50;99.90
3281;DHT22;1652;51.318;6.202;2023-03-23T09:15:15;11.30;99.90
3281;DHT22;1652;51.318;6.202;2023-03-23T09:17:50;11.10;99.90
3281;DHT22;1652;51.318;6.202;2023-03-23T09:20:21;11.10;99.90
3281;DHT22;1652;51.318;6.202;2023-03-23T09:22:50;11.00;99.90
3281;DHT22;1652;51.318;6.202;2023-03-23T09:25:20;10.90;99.90
3281;DHT22;1652;51.318;6.202;2023-03-23T09:27:55;10.90;99.90
3281;DHT22;1652;51.318;6.202;2023-03-23T09:30:25;11.00;99.90
3281;DHT22;1652;51.318;6.202;2023-03-23T09:32:53;11.00;99.90
3281;DHT22;1652;51.318;6.202;2023-03-23T09:35:21;11.00;99.90
3281;DHT22;1652;51.318;6.202;2023-03-23T09:37:50;10.90;99.90
3281;DHT22;1652;51.318;6.202;2023-03-23T09:40:23;10.90;99.90
3281;DHT22;1652;51.318;6.202;2023-03-23T09:45:48;10.90;99.90
3281;DHT22;1652;51.318;6.202;2023-03-23T09:48:33;10.80;99.90
3281;DHT22;1652;51.318;6.202;2023-03-23T09:51:11;10.80;99.90
3281;DHT22;1652;51.318;6.202;2023-03-23T09:53:41;10.80;99.90
3281;DHT22;1652;51.318;6.202;2023-03-23T09:56:11;10.80;99.90
3281;DHT22;1652;51.318;6.202;2023-03-23T09:58:46;10.70;99.90
3281;DHT22;1652;51.318;6.202;2023-03-23T10:01:20;10.70;99.90
3281;DHT22;1652;51.318;6.202;2023-03-23T10:03:55;10.70;99.90
3281;DHT22;1652;51.318;6.202;2023-03-23T10:06:24;10.60;99.90
3281;DHT22;1652;51.318;6.202;2023-03-23T10:17:03;10.80;99.90
3281;DHT22;1652;51.318;6.202;2023-03-23T10:19:46;10.90;99.90
3281;DHT22;1652;51.318;6.202;2023-03-23T10:22:23;11.00;99.90
3281;DHT22;1652;51.318;6.202;2023-03-23T10:25:03;11.00;99.90
3281;DHT22;1652;51.318;6.202;2023-03-23T10:30:55;10.90;99.90
3281;DHT22;1652;51.318;6.202;2023-03-23T10:33:25;11.00;99.90
3281;DHT22;1652;51.318;6.202;2023-03-23T10:36:24;11.30;99.90
3281;DHT22;1652;51.318;6.202;2023-03-23T10:41:34;11.30;99.90
3281;DHT22;1652;51.318;6.202;2023-03-23T10:44:04;11.40;99.90
3281;DHT22;1652;51.318;6.202;2023-03-23T10:46:45;11.40;99.90
3281;DHT22;1652;51.318;6.202;2023-03-23T10:49:22;11.50;99.90
3281;DHT22;1652;51.318;6.202;2023-03-23T10:54:36;11.90;99.90
3281;DHT22;1652;51.318;6.202;2023-03-23T10:59:48;11.60;99.90
3281;DHT22;1652;51.318;6.202;2023-03-23T11:02:18;11.40;99.90
3281;DHT22;1652;51.318;6.202;2023-03-23T11:04:59;11.30;99.90
3281;DHT22;1652;51.318;6.202;2023-03-23T11:07:35;11.30;99.90
3281;DHT22;1652;51.318;6.202;2023-03-23T11:10:34;11.20;99.90
3281;DHT22;1652;51.318;6.202;2023-03-23T11:13:01;11.20;99.90
3281;DHT22;1652;51.318;6.202;2023-03-23T11:15:39;11.30;99.90
3281;DHT22;1652;51.318;6.202;2023-03-23T11:18:13;11.30;99.90
3281;DHT22;1652;51.318;6.202;2023-03-23T11:20:47;11.40;99.90
3281;DHT22;1652;51.318;6.202;2023-03-23T11:23:39;11.60;99.90
3281;DHT22;1652;51.318;6.202;2023-03-23T11:26:20;11.60;99.90
3281;DHT22;1652;51.318;6.202;2023-03-23T11:29:18;11.60;99.90
3281;DHT22;1652;51.318;6.202;2023-03-23T11:31:48;11.70;99.90
3281;DHT22;1652;51.318;6.202;2023-03-23T11:37:09;11.80;99.90
3281;DHT22;1652;51.318;6.202;2023-03-23T11:39:48;11.90;99.90
3281;DHT22;1652;51.318;6.202;2023-03-23T11:42:24;12.00;99.90
3281;DHT22;1652;51.318;6.202;2023-03-23T11:48:03;12.60;99.90
3281;DHT22;1652;51.318;6.202;2023-03-23T11:53:45;12.60;99.90
3281;DHT22;1652;51.318;6.202;2023-03-23T11:56:35;12.40;99.90
3281;DHT22;1652;51.318;6.202;2023-03-23T11:59:09;12.30;99.90
3281;DHT22;1652;51.318;6.202;2023-03-23T12:07:56;12.50;99.90
3281;DHT22;1652;51.318;6.202;2023-03-23T12:13:30;12.70;99.90
3281;DHT22;1652;51.318;6.202;2023-03-23T12:44:06;13.60;99.90
3281;DHT22;1652;51.318;6.202;2023-03-23T12:47:07;13.70;99.90
3281;DHT22;1652;51.318;6.202;2023-03-23T12:49:54;13.50;99.90
3281;DHT22;1652;51.318;6.202;2023-03-23T12:52:38;13.40;99.90
3281;DHT22;1652;51.318;6.202;2023-03-23T12:55:20;13.40;99.90
3281;DHT22;1652;51.318;6.202;2023-03-23T12:57:59;13.50;99.90
3281;DHT22;1652;51.318;6.202;2023-03-23T13:03:02;13.60;99.90
3281;DHT22;1652;51.318;6.202;2023-03-23T13:05:42;13.60;99.90
3281;DHT22;1652;51.318;6.202;2023-03-23T13:08:16;13.50;99.90
3281;DHT22;1652;51.318;6.202;2023-03-23T13:10:47;13.50;99.90
3281;DHT22;1652;51.318;6.202;2023-03-23T13:13:19;13.60;99.90
3281;DHT22;1652;51.318;6.202;2023-03-23T13:16:10;13.70;99.90
3281;DHT22;1652;51.318;6.202;2023-03-23T13:19:14;13.90;99.90
3281;DHT22;1652;51.318;6.202;2023-03-23T13:21:48;14.10;99.90
3281;DHT22;1652;51.318;6.202;2023-03-23T13:24:21;14.40;99.90
3281;DHT22;1652;51.318;6.202;2023-03-23T13:26:50;14.60;99.90
3281;DHT22;1652;51.318;6.202;2023-03-23T13:29:19;14.60;99.90
3281;DHT22;1652;51.318;6.202;2023-03-23T13:31:47;14.60;99.90
3281;DHT22;1652;51.318;6.202;2023-03-23T13:34:24;14.60;99.90
3281;DHT22;1652;51.318;6.202;2023-03-23T13:37:04;14.70;99.90
3281;DHT22;1652;51.318;6.202;2023-03-23T13:39:51;14.70;99.90
3281;DHT22;1652;51.318;6.202;2023-03-23T13:42:25;14.70;99.90
3281;DHT22;1652;51.318;6.202;2023-03-23T13:58:21;14.40;99.90
3281;DHT22;1652;51.318;6.202;2023-03-23T14:03:43;14.70;99.90
3281;DHT22;1652;51.318;6.202;2023-03-23T14:06:15;14.60;99.90
3281;DHT22;1652;51.318;6.202;2023-03-23T14:08:44;14.60;99.90
3281;DHT22;1652;51.318;6.202;2023-03-23T14:11:25;14.30;99.90
3281;DHT22;1652;51.318;6.202;2023-03-23T14:14:04;14.20;99.90
3281;DHT22;1652;51.318;6.202;2023-03-23T14:19:03;14.40;99.90
3281;DHT22;1652;51.318;6.202;2023-03-23T14:21:40;14.60;99.90
3281;DHT22;1652;51.318;6.202;2023-03-23T14:24:23;14.70;99.90
3281;DHT22;1652;51.318;6.202;2023-03-23T14:27:10;14.70;99.90
3281;DHT22;1652;51.318;6.202;2023-03-23T14:29:38;14.80;99.90
3281;DHT22;1652;51.318;6.202;2023-03-23T14:32:07;14.80;99.90
3281;DHT22;1652;51.318;6.202;2023-03-23T14:34:37;14.80;99.90
3281;DHT22;1652;51.318;6.202;2023-03-23T14:37:04;14.90;99.90
3281;DHT22;1652;51.318;6.202;2023-03-23T14:39:32;14.80;99.90
3281;DHT22;1652;51.318;6.202;2023-03-23T14:42:15;14.70;99.90
3281;DHT22;1652;51.318;6.202;2023-03-23T14:44:45;14.60;99.90
3281;DHT22;1652;51.318;6.202;2023-03-23T14:47:23;14.60;99.90
3281;DHT22;1652;51.318;6.202;2023-03-23T14:49:55;14.50;99.90
3281;DHT22;1652;51.318;6.202;2023-03-23T14:52:28;14.40;99.90
3281;DHT22;1652;51.318;6.202;2023-03-23T14:55:06;14.40;99.90
3281;DHT22;1652;51.318;6.202;2023-03-23T14:57:34;14.30;99.90
3281;DHT22;1652;51.318;6.202;2023-03-23T15:00:01;14.30;99.90
3281;DHT22;1652;51.318;6.202;2023-03-23T15:05:01;14.20;99.90
3281;DHT22;1652;51.318;6.202;2023-03-23T15:07:41;14.20;99.90
3281;DHT22;1652;51.318;6.202;2023-03-23T15:10:19;14.30;99.90
3281;DHT22;1652;51.318;6.202;2023-03-23T15:12:48;14.30;99.90
3281;DHT22;1652;51.318;6.202;2023-03-23T15:17:46;14.40;99.90
3281;DHT22;1652;51.318;6.202;2023-03-23T15:22:47;14.40;99.90
3281;DHT22;1652;51.318;6.202;2023-03-23T15:27:55;14.40;99.90
3281;DHT22;1652;51.318;6.202;2023-03-23T15:32:54;14.50;99.90
3281;DHT22;1652;51.318;6.202;2023-03-23T15:35:24;14.40;99.90
3281;DHT22;1652;51.318;6.202;2023-03-23T15:38:00;14.40;99.90
3281;DHT22;1652;51.318;6.202;2023-03-23T15:40:37;14.50;99.90
3281;DHT22;1652;51.318;6.202;2023-03-23T15:45:57;14.80;99.90
3281;DHT22;1652;51.318;6.202;2023-03-23T15:48:27;14.80;99.90
3281;DHT22;1652;51.318;6.202;2023-03-23T15:50:55;14.80;99.90
3281;DHT22;1652;51.318;6.202;2023-03-23T15:55:51;14.80;99.90
3281;DHT22;1652;51.318;6.202;2023-03-23T15:58:18;14.70;99.90
3281;DHT22;1652;51.318;6.202;2023-03-23T16:00:46;14.60;99.90
3281;DHT22;1652;51.318;6.202;2023-03-23T16:03:28;14.50;99.90
3281;DHT22;1652;51.318;6.202;2023-03-23T16:05:57;14.50;99.90
3281;DHT22;1652;51.318;6.202;2023-03-23T16:08:25;14.60;99.90
3281;DHT22;1652;51.318;6.202;2023-03-23T16:10:52;14.70;99.90
3281;DHT22;1652;51.318;6.202;2023-03-23T16:13:19;14.80;99.90
3281;DHT22;1652;51.318;6.202;2023-03-23T16:15:47;14.80;99.90
3281;DHT22;1652;51.318;6.202;2023-03-23T16:18:20;14.80;99.90
3281;DHT22;1652;51.318;6.202;2023-03-23T16:20:48;14.80;99.90
3281;DHT22;1652;51.318;6.202;2023-03-23T16:23:15;14.80;99.90
3281;DHT22;1652;51.318;6.202;2023-03-23T16:25:43;14.70;99.90
3281;DHT22;1652;51.318;6.202;2023-03-23T16:28:14;14.80;99.90
3281;DHT22;1652;51.318;6.202;2023-03-23T16:30:42;14.70;99.90
3281;DHT22;1652;51.318;6.202;2023-03-23T16:33:09;14.70;99.90
3281;DHT22;1652;51.318;6.202;2023-03-23T16:35:36;14.60;99.90
3281;DHT22;1652;51.318;6.202;2023-03-23T16:38:04;14.60;99.90
3281;DHT22;1652;51.318;6.202;2023-03-23T16:40:37;14.50;99.90
3281;DHT22;1652;51.318;6.202;2023-03-23T16:43:04;14.50;99.90
3281;DHT22;1652;51.318;6.202;2023-03-23T16:45:36;14.40;99.90
3281;DHT22;1652;51.318;6.202;2023-03-23T16:48:04;14.50;99.90
3281;DHT22;1652;51.318;6.202;2023-03-23T16:50:32;14.40;99.90
3281;DHT22;1652;51.318;6.202;2023-03-23T16:53:00;14.40;99.90
3281;DHT22;1652;51.318;6.202;2023-03-23T16:55:27;14.30;99.90
3281;DHT22;1652;51.318;6.202;2023-03-23T16:57:55;14.30;99.90
3281;DHT22;1652;51.318;6.202;2023-03-23T17:00:44;14.30;99.90
3281;DHT22;1652;51.318;6.202;2023-03-23T17:03:11;14.30;99.90
3281;DHT22;1652;51.318;6.202;2023-03-23T17:05:39;14.30;99.90
3281;DHT22;1652;51.318;6.202;2023-03-23T17:08:06;14.40;99.90
3281;DHT22;1652;51.318;6.202;2023-03-23T17:10:36;14.40;99.90
3281;DHT22;1652;51.318;6.202;2023-03-23T17:13:03;14.40;99.90
3281;DHT22;1652;51.318;6.202;2023-03-23T17:15:30;14.40;99.90
3281;DHT22;1652;51.318;6.202;2023-03-23T17:18:19;14.30;99.90
3281;DHT22;1652;51.318;6.202;2023-03-23T17:20:46;14.20;99.90
3281;DHT22;1652;51.318;6.202;2023-03-23T17:23:13;14.00;99.90
3281;DHT22;1652;51.318;6.202;2023-03-23T17:25:40;14.00;99.90
3281;DHT22;1652;51.318;6.202;2023-03-23T17:28:07;14.00;99.90
3281;DHT22;1652;51.318;6.202;2023-03-23T17:30:34;13.90;99.90
3281;DHT22;1652;51.318;6.202;2023-03-23T17:33:02;13.80;99.90
3281;DHT22;1652;51.318;6.202;2023-03-23T17:35:29;13.70;99.90
3281;DHT22;1652;51.318;6.202;2023-03-23T17:37:56;13.60;99.90
3281;DHT22;1652;51.318;6.202;2023-03-23T17:40:24;13.60;99.90
3281;DHT22;1652;51.318;6.202;2023-03-23T17:42:51;13.60;99.90
3281;DHT22;1652;51.318;6.202;2023-03-23T17:45:18;13.60;99.90
3281;DHT22;1652;51.318;6.202;2023-03-23T17:47:45;13.70;99.90
3281;DHT22;1652;51.318;6.202;2023-03-23T17:50:12;13.70;99.90
3281;DHT22;1652;51.318;6.202;2023-03-23T17:52:39;13.70;99.90
3281;DHT22;1652;51.318;6.202;2023-03-23T17:55:07;13.80;99.90
3281;DHT22;1652;51.318;6.202;2023-03-23T17:57:34;13.80;99.90
3281;DHT22;1652;51.318;6.202;2023-03-23T18:00:03;13.80;99.90
3281;DHT22;1652;51.318;6.202;2023-03-23T18:02:33;13.80;99.90
3281;DHT22;1652;51.318;6.202;2023-03-23T18:05:00;13.80;99.90
3281;DHT22;1652;51.318;6.202;2023-03-23T18:07:27;13.80;99.90
3281;DHT22;1652;51.318;6.202;2023-03-23T18:09:58;13.80;99.90
3281;DHT22;1652;51.318;6.202;2023-03-23T18:12:26;13.80;99.90
3281;DHT22;1652;51.318;6.202;2023-03-23T18:14:57;13.80;99.90
3281;DHT22;1652;51.318;6.202;2023-03-23T18:17:24;13.80;99.90
3281;DHT22;1652;51.318;6.202;2023-03-23T18:19:52;13.70;99.90
3281;DHT22;1652;51.318;6.202;2023-03-23T18:22:19;13.70;99.90
3281;DHT22;1652;51.318;6.202;2023-03-23T18:24:46;13.70;99.90
3281;DHT22;1652;51.318;6.202;2023-03-23T18:27:13;13.70;99.90
3281;DHT22;1652;51.318;6.202;2023-03-23T18:29:40;13.70;99.90
3281;DHT22;1652;51.318;6.202;2023-03-23T18:32:07;13.70;99.90